createdAt,value
2022-10-22T00:00:28.608Z,100660.91
2022-10-22T00:05:30.617Z,100675.16
2022-10-22T00:10:32.641Z,100666.41
2022-10-22T00:15:36.131Z,100659.44
2022-10-22T00:20:38.091Z,100654.03
2022-10-22T00:25:40.020Z,100656.00
2022-10-22T00:30:43.584Z,100630.50
2022-10-22T00:35:45.646Z,100631.56
2022-10-22T00:40:47.414Z,100634.16
2022-10-22T00:45:50.506Z,100664.31
2022-10-22T00:50:55.156Z,100665.13
2022-10-22T00:55:57.428Z,100676.03
2022-10-22T01:01:03.067Z,100682.34
2022-10-22T01:06:06.151Z,100668.19
2022-10-22T01:11:19.791Z,100675.31
2022-10-22T01:16:32.323Z,100637.16
2022-10-22T01:21:38.378Z,100620.41
2022-10-22T01:26:57.847Z,100631.97
2022-10-22T01:32:05.524Z,100646.28
2022-10-22T01:37:10.172Z,100651.69
2022-10-22T01:42:12.754Z,100645.44
2022-10-22T01:47:24.442Z,100657.09
2022-10-22T01:52:38.789Z,100642.78
2022-10-22T01:57:46.879Z,100656.25
2022-10-22T02:03:00.409Z,100662.63
2022-10-22T02:08:07.062Z,100669.81
2022-10-22T02:13:12.948Z,100668.16
2022-10-22T02:18:19.626Z,100655.00
2022-10-22T02:23:22.455Z,100654.09
2022-10-22T02:28:29.042Z,100652.53
2022-10-22T02:33:37.810Z,100656.25
2022-10-22T02:38:41.863Z,100660.75
2022-10-22T02:43:50.134Z,100651.94
2022-10-22T02:48:53.463Z,100659.03
2022-10-22T02:53:55.544Z,100655.25
2022-10-22T02:58:57.922Z,100651.78
2022-10-22T03:04:01.401Z,100646.53
2022-10-22T03:09:03.252Z,100646.63
2022-10-22T03:14:05.292Z,100651.19
2022-10-22T03:19:08.551Z,100640.56
2022-10-22T03:24:15.292Z,100638.84
2022-10-22T03:29:17.824Z,100643.22
2022-10-22T03:34:21.334Z,100640.56
2022-10-22T03:39:23.946Z,100647.53
2022-10-22T03:44:26.722Z,100651.91
2022-10-22T03:49:30.308Z,100653.72
2022-10-22T03:54:32.666Z,100675.84
2022-10-22T03:59:35.808Z,100682.00
2022-10-22T04:04:39.010Z,100683.84
2022-10-22T04:09:40.902Z,100694.59
2022-10-22T04:14:42.997Z,100707.03
2022-10-22T04:19:46.311Z,100694.66
2022-10-22T04:24:48.420Z,100685.88
2022-10-22T04:29:50.606Z,100695.78
2022-10-22T04:34:54.136Z,100692.31
2022-10-22T04:39:58.109Z,100675.41
2022-10-22T04:45:00.165Z,100673.53
2022-10-22T04:50:04.478Z,100686.06
2022-10-22T04:55:06.740Z,100687.06
2022-10-22T05:00:09.977Z,100702.25
2022-10-22T05:05:13.131Z,100695.22
2022-10-22T05:10:15.214Z,100698.78
2022-10-22T05:15:17.516Z,100689.94
2022-10-22T05:20:20.919Z,100686.47
2022-10-22T05:25:22.831Z,100698.97
2022-10-22T05:30:25.117Z,100701.53
2022-10-22T05:35:28.529Z,100703.38
2022-10-22T05:40:31.375Z,100706.91
2022-10-22T05:45:36.962Z,100710.38
2022-10-22T05:50:40.329Z,100713.88
2022-10-22T05:55:42.299Z,100719.31
2022-10-22T06:00:46.677Z,100715.84
2022-10-22T06:05:50.307Z,100714.03
2022-10-22T06:10:52.335Z,100718.41
2022-10-22T06:15:54.483Z,100737.84
2022-10-22T06:21:04.656Z,100737.91
2022-10-22T06:26:07.152Z,100753.78
2022-10-22T06:31:10.245Z,100754.56
2022-10-22T06:36:18.915Z,100764.25
2022-10-22T06:41:24.400Z,100770.34
2022-10-22T06:46:29.576Z,100770.09
2022-10-22T06:51:33.054Z,100764.53
2022-10-22T06:56:35.082Z,100771.31
2022-10-22T07:01:38.334Z,100772.88
2022-10-22T07:06:41.980Z,100768.19
2022-10-22T07:11:46.140Z,100767.84
2022-10-22T07:16:48.250Z,100778.47
2022-10-22T07:21:51.686Z,100790.81
2022-10-22T07:26:53.995Z,100794.28
2022-10-22T07:31:56.326Z,100814.53
2022-10-22T07:36:59.790Z,100821.63
2022-10-22T07:42:01.907Z,100825.75
2022-10-22T07:47:03.846Z,100831.72
2022-10-22T07:52:08.226Z,100843.88
2022-10-22T07:57:10.324Z,100837.41
2022-10-22T08:02:13.005Z,100835.19
2022-10-22T08:07:16.200Z,100835.97
2022-10-22T08:12:18.049Z,100852.47
2022-10-22T08:17:19.719Z,100853.03
2022-10-22T08:22:23.175Z,100859.91
2022-10-22T08:27:25.206Z,100870.44
2022-10-22T08:37:35.902Z,100873.78
2022-10-22T08:43:03.861Z,100869.97
2022-10-22T08:48:20.722Z,100884.94
2022-10-22T08:53:30.692Z,100882.72
2022-10-22T08:58:38.346Z,100887.88
2022-10-22T09:03:49.934Z,100890.75
2022-10-22T09:08:54.827Z,100893.19
2022-10-22T09:13:58.467Z,100898.47
2022-10-22T09:19:18.293Z,100902.88
2022-10-22T09:24:32.976Z,100909.56
2022-10-22T09:29:35.703Z,100914.66
2022-10-22T09:34:38.665Z,100919.81
2022-10-22T09:39:45.509Z,100919.19
2022-10-22T09:44:53.268Z,100910.03
2022-10-22T09:50:07.417Z,100920.69
2022-10-22T09:55:16.372Z,100932.94
2022-10-22T10:00:20.747Z,100933.78
2022-10-22T10:05:27.319Z,100927.50
2022-10-22T10:10:36.968Z,100933.75
2022-10-22T10:15:46.692Z,100930.34
2022-10-22T10:20:57.923Z,100928.66
2022-10-22T10:26:09.327Z,100925.09
2022-10-22T10:31:20.886Z,100938.28
2022-10-22T10:36:33.308Z,100935.75
2022-10-22T10:41:49.213Z,100934.19
2022-10-22T10:46:59.907Z,100934.09
2022-10-22T10:52:10.871Z,100929.16
2022-10-22T10:57:25.035Z,100930.44
2022-10-22T11:02:47.809Z,100927.09
2022-10-22T11:07:56.449Z,100933.69
2022-10-22T11:13:07.580Z,100922.53
2022-10-22T11:18:17.817Z,100916.31
2022-10-22T11:23:27.924Z,100922.06
2022-10-22T11:28:35.657Z,100920.56
2022-10-22T11:33:46.048Z,100924.44
2022-10-22T11:38:48.788Z,100918.66
2022-10-22T11:44:08.194Z,100918.97
2022-10-22T11:49:24.244Z,100918.19
2022-10-22T11:54:32.345Z,100918.38
2022-10-22T11:59:39.633Z,100915.56
2022-10-22T12:04:41.953Z,100925.69
2022-10-22T12:09:44.111Z,100924.28
2022-10-22T12:14:56.839Z,100920.47
2022-10-22T12:20:02.769Z,100923.09
2022-10-22T12:25:15.926Z,100923.81
2022-10-22T12:30:21.315Z,100920.97
2022-10-22T12:35:25.192Z,100918.94
2022-10-22T12:40:29.467Z,100911.75
2022-10-22T12:45:35.163Z,100932.00
2022-10-22T12:50:41.284Z,100926.94
2022-10-22T12:55:46.563Z,100926.34
2022-10-22T13:00:55.107Z,100936.22
2022-10-22T13:05:57.335Z,100924.53
2022-10-22T13:11:08.863Z,100928.53
2022-10-22T13:16:19.152Z,100930.69
2022-10-22T13:21:24.560Z,100931.03
2022-10-22T13:26:33.784Z,100942.16
2022-10-22T13:31:37.542Z,100942.00
2022-10-22T13:36:39.584Z,100948.41
2022-10-22T13:41:41.743Z,100947.53
2022-10-22T13:46:45.055Z,100949.13
2022-10-22T13:51:47.568Z,100949.72
2022-10-22T13:56:49.730Z,100943.06
2022-10-22T14:01:53.060Z,100952.28
2022-10-22T14:06:56.740Z,100948.31
2022-10-22T14:12:00.630Z,100950.34
2022-10-22T14:17:04.548Z,100954.25
2022-10-22T14:22:10.152Z,100958.69
2022-10-22T14:27:13.593Z,100958.59
2022-10-22T14:32:18.853Z,100959.00
2022-10-22T14:37:20.991Z,100961.28
2022-10-22T14:42:23.291Z,100962.09
2022-10-22T14:47:26.653Z,100968.41
2022-10-22T14:52:28.677Z,100970.53
2022-10-22T14:57:30.714Z,100974.91
2022-10-22T15:02:34.554Z,100978.38
2022-10-22T15:07:37.360Z,100976.56
2022-10-22T15:12:39.349Z,100975.06
2022-10-22T15:17:43.064Z,100971.69
2022-10-22T15:22:45.144Z,100980.00
2022-10-22T15:27:50.366Z,100980.75
2022-10-22T15:32:54.955Z,100983.78
2022-10-22T15:37:56.722Z,100984.91
2022-10-22T15:42:58.862Z,100988.94
2022-10-22T15:48:02.471Z,101001.41
2022-10-22T15:53:04.516Z,101009.22
2022-10-22T15:58:06.758Z,101003.00
2022-10-22T16:03:10.127Z,101009.59
2022-10-22T16:08:12.138Z,101011.28
2022-10-22T16:13:14.214Z,101013.13
2022-10-22T16:18:17.306Z,101012.09
2022-10-22T16:23:19.235Z,101018.50
2022-10-22T16:28:21.070Z,101019.09
2022-10-22T16:33:24.454Z,101019.75
2022-10-22T16:38:27.030Z,101035.47
2022-10-22T16:43:29.508Z,101042.66
2022-10-22T16:48:33.465Z,101055.34
2022-10-22T16:53:35.814Z,101054.31
2022-10-22T16:58:38.455Z,101070.25
2022-10-22T17:03:41.793Z,101082.72
2022-10-22T17:08:43.809Z,101074.91
2022-10-22T17:13:47.408Z,101091.94
2022-10-22T17:18:54.201Z,101097.44
2022-10-22T17:23:56.817Z,101113.44
2022-10-22T17:28:59.167Z,101107.72
2022-10-22T17:34:02.528Z,101092.06
2022-10-22T17:39:07.063Z,101096.91
2022-10-22T17:44:10.293Z,101105.69
2022-10-22T17:49:19.712Z,101110.63
2022-10-22T17:54:21.633Z,101109.66
2022-10-22T17:59:23.283Z,101116.91
2022-10-22T18:04:26.523Z,101118.41
2022-10-22T18:09:28.275Z,101122.72
2022-10-22T18:14:30.318Z,101120.97
2022-10-22T18:19:33.404Z,101127.91
2022-10-22T18:24:36.509Z,101126.38
2022-10-22T18:29:38.695Z,101126.53
2022-10-22T18:34:42.253Z,101133.75
2022-10-22T18:39:43.899Z,101122.25
2022-10-22T18:44:46.136Z,101123.31
2022-10-22T18:49:49.178Z,101132.03
2022-10-22T18:54:51.049Z,101123.19
2022-10-22T18:59:54.661Z,101126.94
2022-10-22T19:05:00.677Z,101142.63
2022-10-22T19:10:03.072Z,101148.94
2022-10-22T19:15:06.542Z,101147.25
2022-10-22T19:20:10.614Z,101155.38
2022-10-22T19:25:12.427Z,101160.13
2022-10-22T19:30:14.637Z,101172.78
2022-10-22T19:35:18.166Z,101170.22
2022-10-22T19:40:20.196Z,101173.69
2022-10-22T19:45:22.064Z,101178.13
2022-10-22T19:50:25.424Z,101186.19
2022-10-22T19:55:27.132Z,101188.84
2022-10-22T20:00:28.792Z,101195.94
2022-10-22T20:05:32.159Z,101199.41
2022-10-22T20:10:34.158Z,101201.75
2022-10-22T20:15:36.789Z,101209.44
2022-10-22T20:20:39.985Z,101210.97
2022-10-22T20:25:43.123Z,101215.31
2022-10-22T20:30:45.826Z,101217.94
2022-10-22T20:35:59.271Z,101227.66
2022-10-22T20:41:03.862Z,101232.22
2022-10-22T20:46:06.473Z,101239.31
2022-10-22T20:51:09.856Z,101244.38
2022-10-22T20:56:13.011Z,101243.41
2022-10-22T21:01:15.594Z,101242.50
2022-10-22T21:06:20.177Z,101247.84
2022-10-22T21:11:21.915Z,101247.84
2022-10-22T21:16:23.537Z,101255.88
2022-10-22T21:21:27.209Z,101256.84
2022-10-22T21:26:29.439Z,101264.03
2022-10-22T21:31:32.027Z,101273.00
2022-10-22T21:36:35.841Z,101278.50
2022-10-22T21:41:38.226Z,101276.66
2022-10-22T21:46:40.602Z,101270.69
2022-10-22T21:51:44.213Z,101279.00
2022-10-22T21:56:46.221Z,101275.78
2022-10-22T22:01:48.284Z,101266.50
2022-10-22T22:06:51.765Z,101272.13
2022-10-22T22:11:53.748Z,101278.72
2022-10-22T22:16:55.415Z,101275.41
2022-10-22T22:21:58.937Z,101276.66
2022-10-22T22:27:01.147Z,101276.84
2022-10-22T22:32:03.226Z,101268.25
2022-10-22T22:37:06.963Z,101265.00
2022-10-22T22:42:09.123Z,101264.38
2022-10-22T22:47:11.088Z,101264.53
2022-10-22T22:52:14.117Z,101263.88
2022-10-22T22:57:15.808Z,101271.94
2022-10-22T23:02:17.739Z,101268.59
2022-10-22T23:07:20.774Z,101275.69
2022-10-22T23:12:23.138Z,101274.94
2022-10-22T23:17:25.200Z,101271.41
2022-10-22T23:22:28.557Z,101277.59
2022-10-22T23:27:30.519Z,101280.38
2022-10-22T23:32:32.564Z,101287.47
2022-10-22T23:37:36.061Z,101277.84
2022-10-22T23:47:41.403Z,101286.91
2022-10-22T23:52:45.766Z,101281.72
2022-10-22T23:57:47.593Z,101287.94
